createdAt,value
2019-04-30T00:01:30.988Z,49.47
2019-04-30T00:04:11.177Z,52.63
2019-04-30T00:06:40.808Z,53.27
2019-04-30T00:09:17.430Z,52.77
2019-04-30T00:11:46.049Z,51.53
2019-04-30T00:14:16.661Z,51.60
2019-04-30T00:16:47.014Z,52.53
2019-04-30T00:19:19.689Z,51.83
2019-04-30T00:21:57.054Z,49.03
2019-04-30T00:24:20.659Z,45.43
2019-04-30T00:26:52.556Z,49.80
2019-04-30T00:29:26.936Z,53.87
2019-04-30T00:31:59.150Z,50.00
2019-04-30T00:34:26.269Z,43.85
2019-04-30T00:36:56.707Z,48.13
2019-04-30T00:39:27.367Z,50.43
2019-04-30T00:41:57.749Z,47.07
2019-04-30T00:44:28.526Z,54.67
2019-04-30T00:47:00.659Z,45.87
2019-04-30T00:49:30.276Z,45.73
2019-04-30T00:52:00.509Z,53.47
2019-04-30T00:54:31.062Z,49.10
2019-04-30T00:57:04.441Z,45.00
2019-04-30T00:59:32.663Z,49.33
2019-04-30T01:02:29.104Z,43.77
2019-04-30T01:05:00.167Z,45.47
2019-04-30T01:07:27.177Z,45.90
2019-04-30T01:09:57.523Z,49.63
2019-04-30T01:12:31.695Z,43.13
2019-04-30T01:15:01.652Z,45.92
2019-04-30T01:17:31.197Z,48.73
2019-04-30T01:20:01.079Z,47.73
2019-04-30T01:22:32.811Z,46.57
2019-04-30T01:25:11.749Z,46.40
2019-04-30T01:27:39.517Z,49.90
2019-04-30T01:30:13.408Z,41.43
2019-04-30T01:32:40.675Z,40.47
2019-04-30T01:35:11.075Z,41.73
2019-04-30T01:37:40.731Z,45.10
2019-04-30T01:40:13.930Z,50.78
2019-04-30T01:42:48.073Z,51.13
2019-04-30T01:45:15.749Z,54.57
2019-04-30T01:47:46.107Z,48.13
2019-04-30T01:50:16.502Z,46.37
2019-04-30T01:52:52.819Z,44.20
2019-04-30T01:55:49.448Z,51.30
2019-04-30T01:58:42.176Z,44.40
2019-04-30T02:01:18.912Z,45.90
2019-04-30T02:03:48.922Z,51.87
2019-04-30T02:06:19.764Z,44.53
2019-04-30T02:08:49.567Z,45.57
2019-04-30T02:11:19.833Z,43.90
2019-04-30T02:13:50.303Z,42.50
2019-04-30T02:16:21.120Z,42.30
2019-04-30T02:18:50.877Z,49.10
2019-04-30T02:21:21.168Z,46.20
2019-04-30T02:23:51.549Z,38.63
2019-04-30T02:26:21.248Z,48.63
2019-04-30T02:28:50.842Z,44.50
2019-04-30T02:31:22.899Z,47.20
2019-04-30T02:33:56.767Z,41.93
2019-04-30T02:36:46.030Z,40.53
2019-04-30T02:39:16.374Z,44.03
2019-04-30T02:41:50.615Z,41.80
2019-04-30T02:44:21.980Z,43.57
2019-04-30T02:46:52.098Z,42.77
2019-04-30T02:49:22.917Z,46.57
2019-04-30T02:51:55.273Z,42.40
2019-04-30T02:54:29.667Z,44.15
2019-04-30T02:57:17.016Z,51.23
2019-04-30T03:00:06.672Z,47.40
2019-04-30T03:02:39.167Z,59.73
2019-04-30T03:05:12.907Z,57.63
2019-04-30T03:07:41.032Z,64.93
2019-04-30T03:10:10.828Z,63.30
2019-04-30T03:12:41.106Z,67.50
2019-04-30T03:15:10.901Z,74.13
2019-04-30T03:17:50.371Z,69.17
2019-04-30T03:20:36.409Z,66.23
2019-04-30T03:23:09.645Z,71.03
2019-04-30T03:25:40.522Z,71.07
2019-04-30T03:28:09.905Z,70.73
2019-04-30T03:30:41.965Z,72.20
2019-04-30T03:33:12.751Z,62.30
2019-04-30T03:35:47.677Z,68.77
2019-04-30T03:38:14.566Z,66.40
2019-04-30T03:40:44.246Z,57.53
2019-04-30T03:43:14.615Z,70.53
2019-04-30T03:45:44.961Z,69.10
2019-04-30T03:48:15.369Z,62.80
2019-04-30T03:50:53.305Z,61.47
2019-04-30T03:53:16.957Z,64.47
2019-04-30T03:55:50.580Z,66.53
2019-04-30T03:58:21.549Z,66.97
2019-04-30T04:01:10.171Z,64.47
2019-04-30T04:04:00.351Z,63.70
2019-04-30T04:06:36.382Z,55.27
2019-04-30T04:09:14.160Z,55.30
2019-04-30T04:11:46.135Z,55.00
2019-04-30T04:14:16.449Z,52.83
2019-04-30T04:16:46.823Z,51.87
2019-04-30T04:19:16.504Z,55.20
2019-04-30T04:21:46.105Z,57.13
2019-04-30T04:24:15.710Z,45.47
2019-04-30T04:26:45.945Z,42.40
2019-04-30T04:29:16.278Z,44.13
2019-04-30T04:31:45.966Z,43.17
2019-04-30T04:34:16.241Z,49.33
2019-04-30T04:36:46.604Z,43.33
2019-04-30T04:39:16.342Z,47.17
2019-04-30T04:41:45.950Z,40.93
2019-04-30T04:44:15.567Z,46.07
2019-04-30T04:46:45.850Z,39.40
2019-04-30T04:49:15.526Z,44.43
2019-04-30T04:51:45.771Z,50.43
2019-04-30T04:54:16.097Z,42.37
2019-04-30T04:56:45.772Z,42.47
2019-04-30T04:59:15.359Z,42.73
2019-04-30T05:01:45.657Z,45.77
2019-04-30T05:04:15.332Z,43.60
2019-04-30T05:06:45.548Z,45.27
2019-04-30T05:09:15.867Z,47.53
2019-04-30T05:11:46.236Z,47.17
2019-04-30T05:14:15.941Z,43.10
2019-04-30T05:16:46.194Z,46.43
2019-04-30T05:19:18.529Z,52.10
2019-04-30T05:21:49.558Z,55.47
2019-04-30T05:24:21.098Z,55.77
2019-04-30T05:26:51.465Z,63.47
2019-04-30T05:29:22.131Z,61.10
2019-04-30T05:31:52.514Z,63.83
2019-04-30T05:34:22.840Z,58.30
2019-04-30T05:36:53.198Z,57.63
2019-04-30T05:39:22.981Z,61.00
2019-04-30T05:41:53.271Z,69.30
2019-04-30T05:44:23.655Z,86.60
2019-04-30T05:46:53.992Z,88.00
2019-04-30T05:49:24.344Z,79.43
2019-04-30T05:51:55.939Z,77.70
2019-04-30T05:54:25.793Z,83.77
2019-04-30T05:56:56.038Z,77.97
2019-04-30T05:59:26.387Z,66.83
2019-04-30T06:01:56.048Z,60.07
2019-04-30T06:04:26.316Z,57.40
2019-04-30T06:06:56.042Z,57.77
2019-04-30T06:09:38.544Z,54.57
2019-04-30T06:12:20.039Z,48.90
2019-04-30T06:14:52.249Z,58.50
2019-04-30T06:17:22.630Z,48.83
2019-04-30T06:19:53.005Z,48.97
2019-04-30T06:22:23.217Z,56.00
2019-04-30T06:24:52.831Z,47.57
2019-04-30T06:27:22.416Z,45.23
2019-04-30T06:29:52.881Z,46.47
2019-04-30T06:32:22.561Z,45.57
2019-04-30T06:34:52.843Z,43.63
2019-04-30T06:37:23.205Z,47.83
2019-04-30T06:39:54.254Z,32.77
2019-04-30T06:42:24.080Z,33.93
2019-04-30T06:44:54.344Z,29.37
2019-04-30T06:47:32.768Z,32.03
2019-04-30T06:49:56.599Z,27.83
2019-04-30T06:52:26.299Z,24.20
2019-04-30T06:54:56.564Z,20.43
2019-04-30T06:57:26.263Z,19.43
2019-04-30T06:59:55.855Z,23.77
2019-04-30T07:02:25.543Z,24.03
2019-04-30T07:04:55.163Z,20.53
2019-04-30T07:07:36.295Z,18.52
2019-04-30T07:10:10.106Z,21.27
2019-04-30T07:12:42.275Z,21.03
2019-04-30T07:15:13.743Z,21.10
2019-04-30T07:17:43.536Z,18.20
2019-04-30T07:20:13.228Z,19.83
2019-04-30T07:22:49.810Z,17.37
2019-04-30T07:25:14.040Z,19.23
2019-04-30T07:27:44.264Z,16.07
2019-04-30T07:30:14.728Z,16.52
2019-04-30T07:32:45.074Z,14.53
2019-04-30T07:35:14.764Z,14.70
2019-04-30T07:37:45.021Z,14.70
2019-04-30T07:40:15.483Z,13.50
2019-04-30T07:42:45.200Z,11.43
2019-04-30T07:45:15.395Z,9.33
2019-04-30T07:47:45.771Z,10.20
2019-04-30T07:50:15.991Z,11.23
2019-04-30T07:52:58.922Z,11.10
2019-04-30T07:55:17.154Z,24.33
2019-04-30T07:57:50.447Z,12.73
2019-04-30T08:00:19.560Z,8.63
2019-04-30T08:02:59.958Z,11.37
2019-04-30T08:05:34.582Z,8.93
2019-04-30T08:08:20.281Z,8.90
2019-04-30T08:10:36.158Z,9.83
2019-04-30T08:13:10.110Z,10.67
2019-04-30T08:15:37.104Z,8.87
2019-04-30T08:18:08.634Z,8.33
2019-04-30T08:20:39.311Z,8.20
2019-04-30T08:23:17.365Z,8.87
2019-04-30T08:25:41.116Z,8.03
2019-04-30T08:28:11.463Z,7.63
2019-04-30T08:30:41.806Z,8.13
2019-04-30T08:33:11.553Z,8.93
2019-04-30T08:35:41.816Z,7.00
2019-04-30T08:38:11.486Z,9.03
2019-04-30T08:40:53.273Z,8.77
2019-04-30T08:43:14.039Z,9.10
2019-04-30T08:45:44.437Z,11.13
2019-04-30T08:48:14.781Z,12.13
2019-04-30T08:50:45.145Z,8.90
2019-04-30T08:53:27.399Z,9.17
2019-04-30T08:55:50.142Z,10.40
2019-04-30T08:58:20.649Z,9.00
2019-04-30T09:00:51.030Z,8.07
2019-04-30T09:03:21.991Z,7.42
2019-04-30T09:06:17.228Z,8.27
2019-04-30T09:08:50.062Z,12.30
2019-04-30T09:11:27.286Z,9.87
2019-04-30T09:13:51.773Z,7.80
2019-04-30T09:16:22.041Z,10.10
2019-04-30T09:18:52.384Z,9.53
2019-04-30T09:21:22.849Z,9.10
2019-04-30T09:23:53.140Z,10.87
2019-04-30T09:26:22.801Z,9.83
2019-04-30T09:28:53.066Z,10.60
2019-04-30T09:31:22.740Z,10.13
2019-04-30T09:33:52.342Z,9.33
2019-04-30T09:36:21.911Z,9.30
2019-04-30T09:38:52.179Z,13.47
2019-04-30T09:41:21.888Z,8.87
2019-04-30T09:43:52.124Z,9.80
2019-04-30T09:46:26.843Z,9.50
2019-04-30T09:48:54.432Z,11.53
2019-04-30T09:51:25.024Z,8.03
2019-04-30T09:53:59.367Z,7.20
2019-04-30T09:56:26.811Z,11.43
2019-04-30T09:58:59.109Z,6.30
2019-04-30T10:01:46.912Z,13.30
2019-04-30T10:04:20.422Z,7.70
2019-04-30T10:06:50.584Z,8.80
2019-04-30T10:09:20.898Z,7.50
2019-04-30T10:11:59.435Z,8.30
2019-04-30T10:14:28.573Z,7.37
2019-04-30T10:17:17.169Z,9.93
2019-04-30T10:19:49.122Z,7.70
2019-04-30T10:22:19.499Z,8.95
2019-04-30T10:24:49.516Z,8.90
2019-04-30T10:27:19.827Z,8.23
2019-04-30T10:29:50.517Z,6.53
2019-04-30T10:32:21.299Z,10.83
2019-04-30T10:35:00.150Z,11.07
2019-04-30T10:37:32.514Z,6.73
2019-04-30T10:40:02.907Z,10.85
2019-04-30T10:42:34.713Z,7.87
2019-04-30T10:45:07.033Z,9.13
2019-04-30T10:47:38.904Z,9.23
2019-04-30T10:50:10.028Z,7.50
2019-04-30T10:52:40.495Z,9.67
2019-04-30T10:55:10.963Z,9.63
2019-04-30T10:57:41.325Z,7.77
2019-04-30T11:00:15.523Z,10.63
2019-04-30T11:02:50.633Z,10.00
2019-04-30T11:05:21.147Z,10.70
2019-04-30T11:07:50.816Z,9.50
2019-04-30T11:10:21.206Z,9.23
2019-04-30T11:12:51.539Z,10.17
2019-04-30T11:15:21.897Z,10.27
2019-04-30T11:17:59.811Z,8.90
2019-04-30T11:20:30.342Z,10.80
2019-04-30T11:23:13.565Z,9.87
2019-04-30T11:25:33.414Z,8.88
2019-04-30T11:28:04.902Z,8.37
2019-04-30T11:30:35.999Z,10.97
2019-04-30T11:33:06.661Z,10.93
2019-04-30T11:35:37.096Z,11.33
2019-04-30T11:38:06.769Z,8.73
2019-04-30T11:40:39.807Z,9.63
2019-04-30T11:43:08.631Z,8.77
2019-04-30T11:46:20.004Z,11.37
2019-04-30T11:48:50.330Z,12.83
2019-04-30T11:51:20.824Z,7.43
2019-04-30T11:53:50.591Z,9.40
2019-04-30T11:56:20.206Z,12.73
2019-04-30T11:58:49.827Z,9.57
2019-04-30T12:01:22.436Z,8.53
2019-04-30T12:03:52.149Z,9.60
2019-04-30T12:06:22.418Z,7.73
2019-04-30T12:09:14.280Z,8.40
2019-04-30T12:11:44.270Z,7.40
2019-04-30T12:14:14.645Z,9.77
2019-04-30T12:16:45.007Z,10.03
2019-04-30T12:19:15.347Z,9.70
2019-04-30T12:21:45.723Z,8.23
2019-04-30T12:24:15.387Z,7.70
2019-04-30T12:26:45.628Z,7.50
2019-04-30T12:29:15.982Z,6.67
2019-04-30T12:31:46.347Z,14.43
2019-04-30T12:34:16.710Z,8.37
2019-04-30T12:36:50.411Z,7.97
2019-04-30T12:39:20.754Z,10.17
2019-04-30T12:41:50.432Z,7.90
2019-04-30T12:44:20.692Z,7.37
2019-04-30T12:46:51.021Z,7.33
2019-04-30T12:49:21.357Z,7.50
2019-04-30T12:52:06.242Z,6.90
2019-04-30T12:54:46.930Z,7.80
2019-04-30T12:57:58.156Z,7.37
2019-04-30T13:00:20.374Z,10.10
2019-04-30T13:02:50.723Z,7.10
2019-04-30T13:05:21.162Z,5.77
2019-04-30T13:07:51.391Z,6.57
2019-04-30T13:10:22.932Z,7.97
2019-04-30T13:12:53.949Z,7.20
2019-04-30T13:15:23.957Z,8.63
2019-04-30T13:17:54.220Z,7.13
2019-04-30T13:20:24.301Z,10.13
2019-04-30T13:22:54.800Z,7.43
2019-04-30T13:25:32.457Z,5.27
2019-04-30T13:28:01.646Z,9.13
2019-04-30T13:30:32.611Z,7.47
2019-04-30T13:33:14.449Z,6.23
2019-04-30T13:35:44.133Z,8.37
2019-04-30T13:38:19.606Z,5.57
2019-04-30T13:41:00.740Z,6.27
2019-04-30T13:44:05.210Z,7.50
2019-04-30T13:46:36.151Z,5.10
2019-04-30T13:49:06.801Z,5.00
2019-04-30T13:51:37.149Z,7.87
2019-04-30T13:54:07.497Z,6.07
2019-04-30T13:56:39.561Z,6.77
2019-04-30T13:59:09.158Z,6.53
2019-04-30T14:01:39.408Z,8.00
2019-04-30T14:04:28.645Z,5.30
2019-04-30T14:07:11.847Z,24.17
2019-04-30T14:09:42.196Z,4.43
2019-04-30T14:12:11.923Z,8.33
2019-04-30T14:14:42.164Z,8.13
2019-04-30T14:17:11.904Z,4.70
2019-04-30T14:19:42.145Z,7.57
2019-04-30T14:22:12.119Z,5.30
2019-04-30T14:24:42.352Z,7.90
2019-04-30T14:27:12.055Z,7.63
2019-04-30T14:29:42.287Z,7.43
2019-04-30T14:32:12.099Z,5.10
2019-04-30T14:34:42.470Z,6.57
2019-04-30T14:37:12.148Z,6.67
2019-04-30T14:39:41.922Z,5.83
2019-04-30T14:42:12.614Z,5.77
2019-04-30T14:44:44.169Z,6.47
2019-04-30T14:47:38.159Z,5.60
2019-04-30T14:50:14.218Z,6.87
2019-04-30T14:53:09.694Z,5.90
2019-04-30T14:56:08.512Z,5.73
2019-04-30T14:58:47.277Z,6.63
2019-04-30T15:01:39.359Z,5.73
2019-04-30T15:04:10.314Z,7.17
2019-04-30T15:06:40.771Z,5.60
2019-04-30T15:09:11.611Z,5.27
2019-04-30T15:11:42.025Z,4.83
2019-04-30T15:14:11.767Z,5.30
2019-04-30T15:16:41.391Z,5.03
2019-04-30T15:19:11.763Z,5.53
2019-04-30T15:21:41.476Z,5.27
2019-04-30T15:24:21.660Z,4.10
2019-04-30T15:26:57.672Z,4.40
2019-04-30T15:29:22.574Z,3.53
2019-04-30T15:31:52.192Z,5.17
2019-04-30T15:34:21.815Z,4.67
2019-04-30T15:36:52.232Z,3.77
2019-04-30T15:39:40.461Z,3.73
2019-04-30T15:42:11.414Z,6.17
2019-04-30T15:44:45.372Z,5.60
2019-04-30T15:47:12.255Z,6.53
2019-04-30T15:49:42.671Z,4.10
2019-04-30T15:52:12.375Z,5.63
2019-04-30T15:54:42.614Z,5.73
2019-04-30T15:57:12.329Z,3.50
2019-04-30T15:59:43.475Z,5.97
2019-04-30T16:02:31.043Z,5.93
2019-04-30T16:05:23.453Z,5.67
2019-04-30T16:08:03.083Z,4.90
2019-04-30T16:11:00.175Z,2.87
2019-04-30T16:13:32.289Z,5.43
2019-04-30T16:16:02.539Z,10.47
2019-04-30T16:18:42.545Z,5.60
2019-04-30T16:21:12.169Z,4.57
2019-04-30T16:23:42.446Z,4.17
2019-04-30T16:26:12.170Z,6.60
2019-04-30T16:28:42.485Z,6.53
2019-04-30T16:31:12.230Z,3.83
2019-04-30T16:33:42.687Z,4.10
2019-04-30T16:36:12.410Z,4.17
2019-04-30T16:38:42.713Z,6.77
2019-04-30T16:41:12.482Z,5.97
2019-04-30T16:43:44.118Z,5.73
2019-04-30T16:46:13.458Z,5.97
2019-04-30T16:48:43.111Z,5.63
2019-04-30T16:51:12.740Z,4.77
2019-04-30T16:53:42.449Z,5.53
2019-04-30T16:56:12.703Z,7.77
2019-04-30T16:59:00.956Z,3.87
2019-04-30T17:01:31.747Z,4.47
2019-04-30T17:04:32.457Z,6.53
2019-04-30T17:07:24.533Z,6.37
2019-04-30T17:10:22.226Z,5.27
2019-04-30T17:13:05.666Z,5.03
2019-04-30T17:15:37.035Z,6.42
2019-04-30T17:18:09.838Z,6.03
2019-04-30T17:20:38.754Z,6.27
2019-04-30T17:23:09.533Z,6.50
2019-04-30T17:25:39.322Z,6.37
2019-04-30T17:28:09.614Z,5.70
2019-04-30T17:30:40.133Z,8.37
2019-04-30T17:33:09.888Z,7.80
2019-04-30T17:35:40.231Z,8.33
2019-04-30T17:38:10.026Z,7.03
2019-04-30T17:40:40.417Z,7.43
2019-04-30T17:43:10.145Z,5.77
2019-04-30T17:45:39.737Z,9.50
2019-04-30T17:48:10.076Z,9.40
2019-04-30T17:50:40.430Z,10.77
2019-04-30T17:53:10.089Z,5.93
2019-04-30T17:55:40.486Z,5.43
2019-04-30T17:58:11.113Z,5.83
2019-04-30T18:00:44.820Z,7.07
2019-04-30T18:03:15.365Z,6.17
2019-04-30T18:05:45.718Z,8.27
2019-04-30T18:08:16.142Z,7.70
2019-04-30T18:10:46.563Z,9.73
2019-04-30T18:13:17.074Z,9.80
2019-04-30T18:15:48.362Z,8.60
2019-04-30T18:18:23.837Z,7.90
2019-04-30T18:20:59.413Z,6.07
2019-04-30T18:23:58.553Z,8.70
2019-04-30T18:26:29.042Z,9.37
2019-04-30T18:28:59.450Z,7.63
2019-04-30T18:31:29.819Z,8.87
2019-04-30T18:34:00.155Z,6.73
2019-04-30T18:36:29.865Z,9.88
2019-04-30T18:39:00.139Z,8.23
2019-04-30T18:41:29.823Z,7.63
2019-04-30T18:44:00.093Z,11.13
2019-04-30T18:46:30.499Z,8.70
2019-04-30T18:49:00.928Z,12.13
2019-04-30T18:51:38.982Z,11.03
2019-04-30T18:54:02.574Z,6.33
2019-04-30T18:56:33.599Z,9.03
2019-04-30T18:59:03.217Z,8.27
2019-04-30T19:01:32.800Z,6.47
2019-04-30T19:04:03.100Z,9.90
2019-04-30T19:06:32.797Z,8.67
2019-04-30T19:09:29.518Z,9.77
2019-04-30T19:12:11.204Z,7.00
2019-04-30T19:15:00.034Z,8.83
2019-04-30T19:18:01.151Z,7.07
2019-04-30T19:20:50.461Z,7.30
2019-04-30T19:23:20.829Z,9.47
2019-04-30T19:25:50.515Z,7.23
2019-04-30T19:28:20.815Z,11.03
2019-04-30T19:30:57.922Z,9.67
2019-04-30T19:33:22.562Z,10.60
2019-04-30T19:35:52.180Z,7.97
2019-04-30T19:38:21.791Z,13.13
2019-04-30T19:40:52.063Z,9.53
2019-04-30T19:43:22.478Z,11.33
2019-04-30T19:45:52.813Z,9.77
2019-04-30T19:48:23.199Z,9.83
2019-04-30T19:50:53.504Z,11.63
2019-04-30T19:53:23.964Z,8.50
2019-04-30T19:55:53.630Z,9.70
2019-04-30T19:58:29.558Z,10.47
2019-04-30T20:00:55.213Z,9.03
2019-04-30T20:03:25.514Z,12.20
2019-04-30T20:05:55.847Z,9.90
2019-04-30T20:08:25.515Z,13.23
2019-04-30T20:10:55.768Z,10.03
2019-04-30T20:13:33.876Z,10.07
2019-04-30T20:15:59.390Z,10.47
2019-04-30T20:18:29.927Z,11.93
2019-04-30T20:21:01.851Z,11.57
2019-04-30T20:23:32.214Z,10.73
2019-04-30T20:26:02.590Z,14.60
2019-04-30T20:28:41.575Z,9.40
2019-04-30T20:31:04.341Z,11.53
2019-04-30T20:33:34.607Z,12.13
2019-04-30T20:36:04.940Z,11.23
2019-04-30T20:38:53.619Z,13.50
2019-04-30T20:41:25.024Z,13.70
2019-04-30T20:43:56.712Z,12.93
2019-04-30T20:46:34.372Z,13.73
2019-04-30T20:48:59.308Z,10.40
2019-04-30T20:51:29.769Z,11.43
2019-04-30T20:54:00.098Z,17.90
2019-04-30T20:56:32.594Z,17.27
2019-04-30T20:59:06.404Z,17.40
2019-04-30T21:01:34.270Z,12.13
2019-04-30T21:04:04.529Z,15.67
2019-04-30T21:06:34.879Z,12.17
2019-04-30T21:09:07.006Z,16.57
2019-04-30T21:11:38.560Z,14.30
2019-04-30T21:14:08.985Z,15.30
2019-04-30T21:16:39.479Z,14.63
2019-04-30T21:19:09.835Z,13.83
2019-04-30T21:21:40.221Z,14.67
2019-04-30T21:24:10.568Z,12.07
2019-04-30T21:26:40.774Z,11.83
2019-04-30T21:29:13.941Z,12.07
2019-04-30T21:31:59.415Z,13.73
2019-04-30T21:34:51.357Z,12.97
2019-04-30T21:37:21.081Z,13.73
2019-04-30T21:39:51.458Z,16.07
2019-04-30T21:42:21.190Z,14.43
2019-04-30T21:44:51.447Z,19.73
2019-04-30T21:47:21.119Z,13.07
2019-04-30T21:49:51.401Z,15.90
2019-04-30T21:52:21.110Z,14.20
2019-04-30T21:54:50.657Z,13.77
2019-04-30T21:57:20.931Z,14.47
2019-04-30T21:59:51.321Z,15.70
2019-04-30T22:02:21.016Z,17.07
2019-04-30T22:04:51.315Z,17.47
2019-04-30T22:07:22.428Z,18.07
2019-04-30T22:09:52.797Z,13.97
2019-04-30T22:12:23.141Z,13.20
2019-04-30T22:14:53.484Z,16.17
2019-04-30T22:17:23.844Z,13.87
2019-04-30T22:19:54.209Z,20.13
2019-04-30T22:22:23.921Z,18.87
2019-04-30T22:24:54.197Z,22.00
2019-04-30T22:27:23.992Z,18.33
2019-04-30T22:29:53.638Z,21.20
2019-04-30T22:32:23.913Z,18.17
2019-04-30T22:34:56.868Z,19.23
2019-04-30T22:37:27.215Z,20.30
2019-04-30T22:40:02.737Z,19.77
2019-04-30T22:42:34.685Z,19.73
2019-04-30T22:45:09.236Z,26.13
2019-04-30T22:47:38.940Z,24.77
2019-04-30T22:50:10.195Z,21.70
2019-04-30T22:52:40.599Z,22.53
2019-04-30T22:55:11.260Z,21.77
2019-04-30T22:57:41.593Z,21.60
2019-04-30T23:00:17.048Z,21.43
2019-04-30T23:02:57.663Z,19.93
2019-04-30T23:05:28.034Z,24.57
2019-04-30T23:07:58.401Z,19.40
2019-04-30T23:10:28.873Z,19.93
2019-04-30T23:12:58.557Z,25.60
2019-04-30T23:15:28.285Z,24.07
2019-04-30T23:17:57.967Z,27.97
2019-04-30T23:20:27.574Z,29.87
2019-04-30T23:22:57.895Z,39.10
2019-04-30T23:25:27.566Z,35.83
2019-04-30T23:27:57.846Z,38.57
2019-04-30T23:30:28.239Z,36.53
2019-04-30T23:32:58.583Z,35.93
2019-04-30T23:35:28.937Z,34.47
2019-04-30T23:37:59.365Z,34.60
2019-04-30T23:40:29.842Z,37.77
2019-04-30T23:43:00.171Z,32.27
2019-04-30T23:45:29.885Z,31.77
2019-04-30T23:48:00.157Z,35.70
2019-04-30T23:50:29.899Z,34.53
2019-04-30T23:53:00.168Z,32.37
2019-04-30T23:55:29.889Z,29.40
2019-04-30T23:58:00.144Z,34.20
